Time;durP1;ratioP1;P1;durP2;ratioP2;P2;SDS_P1;SDS_P2;PMS_P1;PMS_P2;Temp;Humidity;BMP_temperature;BMP_pressure;BME280_temperature;BME280_humidity;BME280_pressure;Samples;Min_cycle;Max_cycle;Signal;HPM_P1;HPM_P2
2023/04/12 00:01:32;;;;;;;4.00;3.90;;;;;;;;;;4246433;28;20054;-59
2023/04/12 00:03:53;;;;;;;4.15;4.05;;;;;;;;;;4246084;28;20099;-59
2023/04/12 00:06:13;;;;;;;4.38;4.20;;;;;;;;;;4247257;28;20080;-59
2023/04/12 00:08:34;;;;;;;4.35;4.25;;;;;;;;;;4249267;28;20366;-59
2023/04/12 00:10:54;;;;;;;4.95;4.75;;;;;;;;;;4246463;28;20050;-59
2023/04/12 00:13:16;;;;;;;4.40;4.30;;;;;;;;;;4246652;28;20074;-59
2023/04/12 00:15:36;;;;;;;3.80;3.63;;;;;;;;;;4248972;28;20070;-59
2023/04/12 00:17:57;;;;;;;4.13;4.03;;;;;;;;;;4249737;28;20093;-59
2023/04/12 00:20:20;;;;;;;4.13;4.03;;;;;;;;;;4250351;28;20076;-59
2023/04/12 00:22:40;;;;;;;3.45;3.25;;;;;;;;;;4242552;28;20085;-59
2023/04/12 00:25:00;;;;;;;4.00;3.90;;;;;;;;;;4248479;28;20149;-59
2023/04/12 00:27:20;;;;;;;4.18;4.07;;;;;;;;;;4247013;28;20046;-59
2023/04/12 00:29:41;;;;;;;4.13;3.97;;;;;;;;;;4247314;27;20080;-59
2023/04/12 00:32:02;;;;;;;2.80;2.70;;;;;;;;;;4242812;28;20042;-59
2023/04/12 00:34:23;;;;;;;3.92;3.83;;;;;;;;;;4247871;28;20054;-59
2023/04/12 00:36:43;;;;;;;3.55;3.55;;;;;;;;;;4244032;28;20080;-59
2023/04/12 00:39:04;;;;;;;3.03;2.92;;;;;;;;;;4247798;28;20256;-59
2023/04/12 00:41:26;;;;;;;3.50;3.40;;;;;;;;;;4248236;28;20269;-59
2023/04/12 00:43:46;;;;;;;2.50;2.40;;;;;;;;;;4242437;28;20047;-59
2023/04/12 00:46:06;;;;;;;4.63;3.78;;;;;;;;;;4241744;28;20112;-59
2023/04/12 00:48:27;;;;;;;3.83;3.63;;;;;;;;;;4246554;28;20038;-59
2023/04/12 00:50:48;;;;;;;3.92;3.83;;;;;;;;;;4241071;28;20116;-59
2023/04/12 00:53:12;;;;;;;6.88;3.13;;;;;;;;;;4245943;28;20047;-59
2023/04/12 00:55:32;;;;;;;4.10;3.90;;;;;;;;;;4242398;28;20042;-59
2023/04/12 00:57:52;;;;;;;3.60;3.40;;;;;;;;;;4246219;28;20058;-59
2023/04/12 01:00:13;;;;;;;3.28;3.22;;;;;;;;;;4241260;28;20051;-59
2023/04/12 01:02:34;;;;;;;3.47;3.38;;;;;;;;;;4246769;28;20415;-59
2023/04/12 01:04:57;;;;;;;4.53;4.43;;;;;;;;;;4247278;28;20402;-59
2023/04/12 01:07:36;;;;;;;5.05;4.75;;;;;;;;;;4246536;28;20046;-59
2023/04/12 01:09:56;;;;;;;4.53;4.30;;;;;;;;;;4243556;28;20227;-59
2023/04/12 01:12:20;;;;;;;5.97;3.55;;;;;;;;;;4245090;28;20051;-59
2023/04/12 01:14:40;;;;;;;4.15;3.92;;;;;;;;;;4247554;28;20038;-59
2023/04/12 01:17:04;;;;;;;3.45;3.45;;;;;;;;;;4245417;28;20319;-59
2023/04/12 01:19:44;;;;;;;3.78;3.67;;;;;;;;;;4243211;28;20081;-59
2023/04/12 01:22:24;;;;;;;5.28;4.05;;;;;;;;;;4248346;28;20428;-59
2023/04/12 01:24:54;;;;;;;3.30;3.15;;;;;;;;;;4245023;28;20042;-59
2023/04/12 01:27:34;;;;;;;3.58;3.45;;;;;;;;;;4246966;28;20081;-59
2023/04/12 01:29:55;;;;;;;3.78;3.67;;;;;;;;;;4248168;28;20234;-59
2023/04/12 01:32:16;;;;;;;3.67;3.55;;;;;;;;;;4246124;28;20385;-59
2023/04/12 01:34:38;;;;;;;3.42;3.22;;;;;;;;;;4242467;28;20051;-59
2023/04/12 01:37:00;;;;;;;3.15;2.95;;;;;;;;;;4250989;27;20062;-59
2023/04/12 01:39:21;;;;;;;;;;;;;;;;;;4247869;28;20054;-59
2023/04/12 01:41:44;;;;;;;4.00;3.80;;;;;;;;;;4248621;27;19964;-59
2023/04/12 01:44:04;;;;;;;3.30;3.30;;;;;;;;;;4256093;27;20062;-59
2023/04/12 01:46:25;;;;;;;3.88;3.70;;;;;;;;;;4244215;28;20230;-59
2023/04/12 01:48:52;;;;;;;4.50;4.30;;;;;;;;;;4250708;28;20064;-59
2023/04/12 01:51:36;;;;;;;5.85;5.05;;;;;;;;;;4250685;28;20041;-59
2023/04/12 01:53:56;;;;;;;;;;;;;;;;;;4251892;28;20238;-60
2023/04/12 01:56:17;;;;;;;4.80;4.60;;;;;;;;;;4248940;28;19921;-59
2023/04/12 01:58:39;;;;;;;4.57;4.25;;;;;;;;;;4249260;28;20037;-59
2023/04/12 02:01:00;;;;;;;3.38;3.38;;;;;;;;;;4247081;28;20050;-59
2023/04/12 02:03:22;;;;;;;4.47;4.28;;;;;;;;;;4251738;28;20051;-59
2023/04/12 02:05:42;;;;;;;4.35;4.03;;;;;;;;;;4243340;28;20088;-59
2023/04/12 02:08:03;;;;;;;5.15;4.95;;;;;;;;;;4249857;28;20045;-59
2023/04/12 02:10:30;;;;;;;4.05;3.90;;;;;;;;;;4247827;28;20096;-59
2023/04/12 02:12:53;;;;;;;2.97;2.92;;;;;;;;;;4248751;28;20058;-59
2023/04/12 02:15:15;;;;;;;3.70;3.40;;;;;;;;;;4249523;28;20042;-59
2023/04/12 02:17:36;;;;;;;4.47;4.20;;;;;;;;;;4247892;28;20084;-59
2023/04/12 02:19:56;;;;;;;4.68;4.20;;;;;;;;;;4246899;28;20039;-59
2023/04/12 02:22:16;;;;;;;3.80;3.67;;;;;;;;;;4246997;28;20050;-59
2023/04/12 02:24:37;;;;;;;3.80;3.67;;;;;;;;;;4250538;28;20049;-59
2023/04/12 02:27:00;;;;;;;3.72;2.78;;;;;;;;;;4246904;28;20408;-59
2023/04/12 02:29:20;;;;;;;2.63;2.63;;;;;;;;;;4245915;28;20088;-59
2023/04/12 02:31:41;;;;;;;3.53;3.42;;;;;;;;;;4248578;28;20103;-59
2023/04/12 02:34:01;;;;;;;3.40;3.30;;;;;;;;;;4248800;28;20074;-59
2023/04/12 02:36:22;;;;;;;3.85;3.60;;;;;;;;;;4243473;28;20419;-59
2023/04/12 02:38:42;;;;;;;4.10;3.20;;;;;;;;;;4247364;28;20368;-59
2023/04/12 02:41:02;;;;;;;4.07;3.97;;;;;;;;;;4246811;28;20046;-59
2023/04/12 02:43:22;;;;;;;4.80;4.60;;;;;;;;;;4245678;28;20042;-59
2023/04/12 02:45:42;;;;;;;5.85;5.40;;;;;;;;;;4243143;28;20089;-59
2023/04/12 02:48:04;;;;;;;5.80;5.60;;;;;;;;;;4243551;28;20366;-59
2023/04/12 02:50:24;;;;;;;6.25;5.90;;;;;;;;;;4244524;28;20042;-59
2023/04/12 02:52:45;;;;;;;5.10;4.80;;;;;;;;;;4243127;28;20053;-59
2023/04/12 02:55:06;;;;;;;5.45;5.25;;;;;;;;;;4242580;28;20350;-59
2023/04/12 02:57:26;;;;;;;4.88;4.68;;;;;;;;;;4247805;28;20239;-59
2023/04/12 02:59:46;;;;;;;5.47;5.13;;;;;;;;;;4242115;28;20082;-60
2023/04/12 03:02:06;;;;;;;5.15;5.03;;;;;;;;;;4241360;28;20051;-59
2023/04/12 03:04:29;;;;;;;5.20;5.10;;;;;;;;;;4242686;28;20099;-59
2023/04/12 03:06:52;;;;;;;5.60;5.40;;;;;;;;;;4250151;28;20382;-59
2023/04/12 03:09:14;;;;;;;5.85;5.72;;;;;;;;;;4253791;28;20076;-59
2023/04/12 03:11:35;;;;;;;4.30;4.07;;;;;;;;;;4248653;28;20104;-59
2023/04/12 03:13:55;;;;;;;5.03;4.82;;;;;;;;;;4246493;28;20111;-59
2023/04/12 03:16:23;;;;;;;5.35;5.25;;;;;;;;;;4251027;28;20074;-59
2023/04/12 03:18:43;;;;;;;5.65;5.55;;;;;;;;;;4253802;28;20372;-59
2023/04/12 03:21:04;;;;;;;7.43;6.90;;;;;;;;;;4244691;28;20112;-59
2023/04/12 03:23:24;;;;;;;5.40;5.20;;;;;;;;;;4246207;28;20309;-59
2023/04/12 03:25:45;;;;;;;4.22;4.13;;;;;;;;;;4251422;28;20358;-59
2023/04/12 03:28:06;;;;;;;4.63;4.43;;;;;;;;;;4247148;28;20266;-59
2023/04/12 03:30:26;;;;;;;5.68;5.07;;;;;;;;;;4247143;28;20274;-59
2023/04/12 03:32:46;;;;;;;5.72;5.30;;;;;;;;;;4246029;28;20047;-59
2023/04/12 03:35:07;;;;;;;6.30;5.80;;;;;;;;;;4241223;28;20396;-59
2023/04/12 03:37:28;;;;;;;4.82;4.47;;;;;;;;;;4247202;27;20062;-59
2023/04/12 03:39:49;;;;;;;4.10;3.90;;;;;;;;;;4248429;28;20058;-59
2023/04/12 03:42:09;;;;;;;4.55;4.30;;;;;;;;;;4248551;28;20046;-59
2023/04/12 03:44:47;;;;;;;4.75;4.65;;;;;;;;;;4247372;28;20082;-59
2023/04/12 03:47:08;;;;;;;4.00;3.80;;;;;;;;;;4251639;28;20069;-59
2023/04/12 03:49:28;;;;;;;4.53;4.32;;;;;;;;;;4246567;28;20354;-59
2023/04/12 03:51:49;;;;;;;3.85;3.75;;;;;;;;;;4250236;28;20112;-59
2023/04/12 03:54:10;;;;;;;5.38;5.07;;;;;;;;;;4247233;28;20061;-59
2023/04/12 03:56:30;;;;;;;4.25;4.05;;;;;;;;;;4243856;28;20358;-59
2023/04/12 03:58:50;;;;;;;5.47;5.35;;;;;;;;;;4248518;28;20135;-59
2023/04/12 04:01:12;;;;;;;4.97;4.88;;;;;;;;;;4246947;28;20096;-59
2023/04/12 04:03:33;;;;;;;4.50;4.40;;;;;;;;;;4247606;28;20273;-59
2023/04/12 04:05:54;;;;;;;4.65;4.30;;;;;;;;;;4247978;28;20046;-59
2023/04/12 04:08:14;;;;;;;6.78;4.00;;;;;;;;;;4250498;28;20081;-59
2023/04/12 04:10:34;;;;;;;4.05;3.85;;;;;;;;;;4248900;28;20080;-59
2023/04/12 04:12:55;;;;;;;4.40;4.30;;;;;;;;;;4247584;28;20239;-59
2023/04/12 04:15:16;;;;;;;3.72;3.63;;;;;;;;;;4246681;28;20075;-59
2023/04/12 04:17:36;;;;;;;4.60;4.10;;;;;;;;;;4248965;28;20107;-59
2023/04/12 04:19:56;;;;;;;4.78;4.47;;;;;;;;;;4246401;28;20046;-59
2023/04/12 04:22:20;;;;;;;4.38;4.20;;;;;;;;;;4242436;28;20088;-59
2023/04/12 04:24:40;;;;;;;4.63;4.43;;;;;;;;;;4246918;28;20230;-59
2023/04/12 04:27:00;;;;;;;5.43;4.90;;;;;;;;;;4251360;28;20102;-59
2023/04/12 04:29:20;;;;;;;5.88;5.65;;;;;;;;;;4248540;28;20050;-59
2023/04/12 04:31:41;;;;;;;4.35;4.18;;;;;;;;;;4249520;28;20057;-59
2023/04/12 04:34:04;;;;;;;4.78;4.63;;;;;;;;;;4251050;28;20392;-59
2023/04/12 04:36:25;;;;;;;4.85;4.65;;;;;;;;;;4250985;28;20050;-59
2023/04/12 04:38:46;;;;;;;6.68;6.38;;;;;;;;;;4248597;28;20042;-59
2023/04/12 04:41:08;;;;;;;8.83;8.43;;;;;;;;;;4248293;28;20050;-59
2023/04/12 04:43:32;;;;;;;7.07;6.68;;;;;;;;;;4244683;28;20122;-59
2023/04/12 04:45:53;;;;;;;6.95;6.57;;;;;;;;;;4242032;28;20039;-59
2023/04/12 04:48:13;;;;;;;6.18;6.07;;;;;;;;;;4243643;28;20061;-59
2023/04/12 04:50:34;;;;;;;5.18;4.88;;;;;;;;;;4248302;28;20063;-59
2023/04/12 04:52:54;;;;;;;5.72;5.53;;;;;;;;;;4242707;28;20077;-59
2023/04/12 04:55:16;;;;;;;4.20;3.97;;;;;;;;;;4246103;28;20354;-58
2023/04/12 04:57:36;;;;;;;4.75;4.35;;;;;;;;;;4243703;28;20058;-57
2023/04/12 04:59:57;;;;;;;5.03;4.90;;;;;;;;;;4248960;28;20076;-57
2023/04/12 05:02:17;;;;;;;4.93;4.53;;;;;;;;;;4241991;28;20154;-56
2023/04/12 05:04:37;;;;;;;6.13;4.88;;;;;;;;;;4244869;28;20050;-57
2023/04/12 05:06:58;;;;;;;5.88;5.68;;;;;;;;;;4241835;28;20042;-56
2023/04/12 05:09:18;;;;;;;5.05;4.85;;;;;;;;;;4249827;28;20377;-56
2023/04/12 05:11:38;;;;;;;6.47;6.10;;;;;;;;;;4241439;28;20090;-57
2023/04/12 05:13:59;;;;;;;6.28;5.88;;;;;;;;;;4242667;28;20219;-57
2023/04/12 05:16:19;;;;;;;5.97;5.57;;;;;;;;;;4244477;28;20058;-56
2023/04/12 05:18:40;;;;;;;6.95;6.60;;;;;;;;;;4248469;28;20073;-57
2023/04/12 05:21:04;;;;;;;6.25;5.78;;;;;;;;;;4245863;28;20051;-57
2023/04/12 05:23:26;;;;;;;5.43;5.13;;;;;;;;;;4248091;28;20042;-57
2023/04/12 05:25:48;;;;;;;6.72;4.85;;;;;;;;;;4245687;28;20051;-58
2023/04/12 05:28:12;;;;;;;5.82;5.53;;;;;;;;;;4247071;28;20089;-57
2023/04/12 05:30:33;;;;;;;5.85;5.65;;;;;;;;;;4250494;28;20047;-57
2023/04/12 05:32:53;;;;;;;5.45;5.35;;;;;;;;;;4249810;28;20092;-57
2023/04/12 05:35:13;;;;;;;6.05;5.85;;;;;;;;;;4252423;28;20043;-57
2023/04/12 05:37:33;;;;;;;8.68;8.18;;;;;;;;;;4243769;28;20047;-57
2023/04/12 05:39:53;;;;;;;8.18;7.63;;;;;;;;;;4251269;28;20057;-57
2023/04/12 05:42:14;;;;;;;6.78;6.20;;;;;;;;;;4249676;28;20076;-57
2023/04/12 05:44:35;;;;;;;5.93;5.53;;;;;;;;;;4247354;28;20043;-58
2023/04/12 05:46:56;;;;;;;7.50;6.80;;;;;;;;;;4245379;28;20042;-57
2023/04/12 05:49:16;;;;;;;8.70;8.40;;;;;;;;;;4252984;28;20042;-57
2023/04/12 05:51:36;;;;;;;8.98;8.23;;;;;;;;;;4253417;28;20357;-57
2023/04/12 05:54:05;;;;;;;7.45;7.20;;;;;;;;;;4251149;28;20046;-57
2023/04/12 05:56:25;;;;;;;8.40;8.05;;;;;;;;;;4251317;28;20039;-57
2023/04/12 05:58:46;;;;;;;9.90;9.50;;;;;;;;;;4253223;28;20080;-57
2023/04/12 06:01:06;;;;;;;9.70;9.02;;;;;;;;;;4246270;28;20061;-58
2023/04/12 06:03:29;;;;;;;6.90;6.70;;;;;;;;;;4248011;28;20046;-57
2023/04/12 06:05:50;;;;;;;;;;;;;;;;;;4250382;28;20050;-57
2023/04/12 06:08:11;;;;;;;6.60;6.28;;;;;;;;;;4244208;28;19967;-57
2023/04/12 06:10:31;;;;;;;7.85;7.35;;;;;;;;;;4248206;28;20384;-58
2023/04/12 06:12:52;;;;;;;7.78;7.47;;;;;;;;;;4249696;28;20234;-57
2023/04/12 06:15:13;;;;;;;9.00;8.60;;;;;;;;;;4247596;28;20230;-57
2023/04/12 06:17:34;;;;;;;8.73;8.32;;;;;;;;;;4243012;28;20050;-57
2023/04/12 06:19:54;;;;;;;7.72;7.38;;;;;;;;;;4249477;28;20077;-58
2023/04/12 06:22:15;;;;;;;7.35;6.93;;;;;;;;;;4248645;28;20054;-57
2023/04/12 06:24:35;;;;;;;6.47;5.95;;;;;;;;;;4247255;28;20365;-57
2023/04/12 06:26:55;;;;;;;7.45;7.07;;;;;;;;;;4244333;28;20054;-57
2023/04/12 06:29:16;;;;;;;7.20;6.90;;;;;;;;;;4248534;28;20097;-57
2023/04/12 06:31:36;;;;;;;7.43;7.13;;;;;;;;;;4246975;28;20050;-57
2023/04/12 06:33:57;;;;;;;7.85;7.18;;;;;;;;;;4248602;28;20293;-58
2023/04/12 06:36:17;;;;;;;9.18;8.45;;;;;;;;;;4252234;27;20051;-57
2023/04/12 06:38:38;;;;;;;8.73;7.85;;;;;;;;;;4249639;28;20074;-57
2023/04/12 06:40:59;;;;;;;7.50;7.15;;;;;;;;;;4246118;28;20070;-57
2023/04/12 06:43:21;;;;;;;7.72;7.13;;;;;;;;;;4248654;28;20517;-57
2023/04/12 06:45:42;;;;;;;7.47;7.25;;;;;;;;;;4246737;28;20085;-57
2023/04/12 06:48:02;;;;;;;7.25;6.95;;;;;;;;;;4243697;28;20081;-57
2023/04/12 06:50:22;;;;;;;8.35;8.02;;;;;;;;;;4243576;28;20043;-58
2023/04/12 06:52:43;;;;;;;8.15;7.25;;;;;;;;;;4248183;28;20093;-57
2023/04/12 06:55:03;;;;;;;8.65;8.25;;;;;;;;;;4248535;28;20128;-58
2023/04/12 06:57:24;;;;;;;7.70;7.40;;;;;;;;;;4244137;28;20061;-57
2023/04/12 06:59:44;;;;;;;9.70;8.07;;;;;;;;;;4240680;28;20043;-57
2023/04/12 07:02:05;;;;;;;8.30;7.70;;;;;;;;;;4234362;28;20051;-57
2023/04/12 07:04:26;;;;;;;7.03;6.78;;;;;;;;;;4244562;28;20054;-57
2023/04/12 07:06:46;;;;;;;9.43;8.85;;;;;;;;;;4229122;28;20111;-58
2023/04/12 07:09:06;;;;;;;7.38;6.90;;;;;;;;;;4244348;28;20041;-57
2023/04/12 07:11:27;;;;;;;9.38;8.45;;;;;;;;;;4244242;27;20084;-57
2023/04/12 07:13:47;;;;;;;8.57;7.32;;;;;;;;;;4241945;28;20103;-57
2023/04/12 07:16:07;;;;;;;8.10;7.32;;;;;;;;;;4242029;28;20063;-58
2023/04/12 07:18:27;;;;;;;7.60;7.20;;;;;;;;;;4241334;28;20043;-57
2023/04/12 07:20:51;;;;;;;8.90;7.65;;;;;;;;;;4241341;28;20047;-57
2023/04/12 07:23:12;;;;;;;7.50;6.95;;;;;;;;;;4246817;28;20038;-58
2023/04/12 07:25:32;;;;;;;8.85;8.10;;;;;;;;;;4248717;28;20361;-57
2023/04/12 07:27:52;;;;;;;8.30;7.75;;;;;;;;;;4253024;28;20046;-57
2023/04/12 07:30:13;;;;;;;8.85;8.38;;;;;;;;;;4246567;28;20039;-57
2023/04/12 07:32:33;;;;;;;11.75;10.98;;;;;;;;;;4248176;28;20045;-58
2023/04/12 07:34:53;;;;;;;10.75;9.98;;;;;;;;;;4256115;27;20091;-58
2023/04/12 07:37:16;;;;;;;7.90;7.28;;;;;;;;;;4238026;28;20107;-58
2023/04/12 07:39:39;;;;;;;9.45;8.70;;;;;;;;;;4251758;27;20064;-57
2023/04/12 07:42:00;;;;;;;7.25;6.88;;;;;;;;;;4248088;28;20054;-58
2023/04/12 07:44:20;;;;;;;10.00;9.35;;;;;;;;;;4247563;28;20057;-58
2023/04/12 07:46:40;;;;;;;9.60;8.90;;;;;;;;;;4247987;28;20328;-57
2023/04/12 07:49:01;;;;;;;8.27;7.65;;;;;;;;;;4247101;28;20042;-57
2023/04/12 07:51:21;;;;;;;8.70;7.88;;;;;;;;;;4248343;28;20042;-57
2023/04/12 07:53:46;;;;;;;14.05;8.35;;;;;;;;;;4249336;28;20042;-58
2023/04/12 07:56:07;;;;;;;9.45;7.82;;;;;;;;;;4244789;28;20043;-58
2023/04/12 07:58:27;;;;;;;10.70;10.18;;;;;;;;;;4246116;28;20065;-57
2023/04/12 08:00:48;;;;;;;12.93;11.88;;;;;;;;;;4246188;28;20262;-58
2023/04/12 08:03:08;;;;;;;13.07;11.73;;;;;;;;;;4247131;28;20357;-58
2023/04/12 08:05:29;;;;;;;16.67;14.98;;;;;;;;;;4245554;28;20049;-57
2023/04/12 08:07:49;;;;;;;15.68;14.15;;;;;;;;;;4246157;28;20107;-58
2023/04/12 08:10:09;;;;;;;14.30;13.02;;;;;;;;;;4231025;28;20250;-58
2023/04/12 08:12:30;;;;;;;11.60;10.45;;;;;;;;;;4247446;28;20084;-57
2023/04/12 08:14:50;;;;;;;12.82;11.82;;;;;;;;;;4249413;28;20068;-58
2023/04/12 08:17:10;;;;;;;17.83;13.93;;;;;;;;;;4244614;28;20047;-57
2023/04/12 08:19:30;;;;;;;7.53;7.15;;;;;;;;;;4247243;28;20050;-58
2023/04/12 08:21:51;;;;;;;7.25;6.90;;;;;;;;;;4230942;28;20370;-58
2023/04/12 08:24:11;;;;;;;6.90;6.53;;;;;;;;;;4248872;28;20265;-58
2023/04/12 08:26:32;;;;;;;7.18;6.78;;;;;;;;;;4245480;28;20041;-58
2023/04/12 08:28:52;;;;;;;12.30;11.20;;;;;;;;;;4242675;28;20265;-58
2023/04/12 08:31:12;;;;;;;11.32;10.05;;;;;;;;;;4239568;28;20047;-58
2023/04/12 08:33:33;;;;;;;12.32;11.10;;;;;;;;;;4245951;28;20043;-57
2023/04/12 08:35:53;;;;;;;8.85;8.02;;;;;;;;;;4243455;28;20051;-57
2023/04/12 08:38:14;;;;;;;9.50;8.93;;;;;;;;;;4241527;28;20326;-58
2023/04/12 08:40:35;;;;;;;9.43;8.70;;;;;;;;;;4252625;28;20080;-57
2023/04/12 08:42:56;;;;;;;8.18;7.65;;;;;;;;;;4245594;28;20084;-58
2023/04/12 08:45:16;;;;;;;8.02;7.22;;;;;;;;;;4244687;28;20043;-58
2023/04/12 08:47:38;;;;;;;9.27;8.32;;;;;;;;;;4244677;28;20046;-58
2023/04/12 08:50:00;;;;;;;9.13;8.50;;;;;;;;;;4245703;28;20100;-58
2023/04/12 08:52:20;;;;;;;8.68;7.90;;;;;;;;;;4251212;28;20046;-58
2023/04/12 08:54:40;;;;;;;8.63;7.45;;;;;;;;;;4248400;28;20099;-58
2023/04/12 08:57:02;;;;;;;9.00;8.20;;;;;;;;;;4246747;28;20102;-57
2023/04/12 08:59:22;;;;;;;9.38;8.45;;;;;;;;;;4249384;28;20070;-58
2023/04/12 09:01:42;;;;;;;11.32;9.82;;;;;;;;;;4250541;28;20088;-57
2023/04/12 09:04:06;;;;;;;9.32;8.43;;;;;;;;;;4247834;28;20081;-58
2023/04/12 09:06:26;;;;;;;10.38;9.60;;;;;;;;;;4246142;28;20100;-57
2023/04/12 09:08:54;;;;;;;11.70;8.75;;;;;;;;;;4248141;28;20042;-58
2023/04/12 09:11:24;;;;;;;11.05;9.88;;;;;;;;;;4252497;28;20088;-57
2023/04/12 09:13:44;;;;;;;8.82;8.23;;;;;;;;;;4245730;28;20042;-57
2023/04/12 09:16:05;;;;;;;8.85;8.15;;;;;;;;;;4245529;28;20047;-58
2023/04/12 09:18:26;;;;;;;8.23;7.68;;;;;;;;;;4246866;28;20078;-57
2023/04/12 09:20:46;;;;;;;10.65;7.20;;;;;;;;;;4246584;28;20067;-58
2023/04/12 09:23:17;;;;;;;7.43;6.82;;;;;;;;;;4246078;28;20047;-57
2023/04/12 09:25:38;;;;;;;9.93;8.95;;;;;;;;;;4249778;28;20091;-57
2023/04/12 09:27:59;;;;;;;8.38;7.80;;;;;;;;;;4246087;28;20043;-58
2023/04/12 09:30:19;;;;;;;8.82;8.30;;;;;;;;;;4253623;28;20042;-58
2023/04/12 09:32:40;;;;;;;14.82;8.82;;;;;;;;;;4232639;28;20050;-58
2023/04/12 09:35:01;;;;;;;11.02;9.02;;;;;;;;;;4250861;28;20049;-58
2023/04/12 09:37:21;;;;;;;10.70;8.68;;;;;;;;;;4245338;28;20051;-57
2023/04/12 09:39:42;;;;;;;7.53;7.07;;;;;;;;;;4253371;28;20043;-58
2023/04/12 09:42:06;;;;;;;7.40;7.10;;;;;;;;;;4247872;28;20050;-58
2023/04/12 09:44:39;;;;;;;8.20;7.60;;;;;;;;;;4250322;28;20141;-57
2023/04/12 09:47:01;;;;;;;7.45;6.95;;;;;;;;;;4246824;28;20071;-58
2023/04/12 09:49:35;;;;;;;7.18;6.93;;;;;;;;;;4246826;28;20392;-58
2023/04/12 09:51:56;;;;;;;7.05;6.32;;;;;;;;;;4245548;28;20103;-58
2023/04/12 09:54:18;;;;;;;;;;;;;;;;;;4251956;28;20108;-57
2023/04/12 09:56:41;;;;;;;7.80;7.05;;;;;;;;;;4249209;28;19936;-58
2023/04/12 09:59:02;;;;;;;6.27;6.07;;;;;;;;;;4248328;28;20047;-58
2023/04/12 10:01:24;;;;;;;8.15;7.38;;;;;;;;;;4244581;28;20280;-58
2023/04/12 10:03:44;;;;;;;7.80;7.20;;;;;;;;;;4244755;28;20080;-59
2023/04/12 10:06:05;;;;;;;6.45;6.03;;;;;;;;;;4247969;28;20083;-58
2023/04/12 10:08:26;;;;;;;7.65;6.72;;;;;;;;;;4247939;28;20064;-58
2023/04/12 10:10:46;;;;;;;6.50;5.88;;;;;;;;;;4246873;28;20051;-58
2023/04/12 10:13:10;;;;;;;7.95;7.40;;;;;;;;;;4246737;28;20080;-59
2023/04/12 10:15:32;;;;;;;7.93;7.63;;;;;;;;;;4250886;28;20046;-58
2023/04/12 10:17:53;;;;;;;7.53;6.78;;;;;;;;;;4248567;28;20104;-58
2023/04/12 10:20:15;;;;;;;6.10;5.75;;;;;;;;;;4245645;28;20043;-58
2023/04/12 10:22:35;;;;;;;7.28;6.78;;;;;;;;;;4248370;28;20046;-58
2023/04/12 10:24:56;;;;;;;10.30;8.38;;;;;;;;;;4248861;28;20053;-58
2023/04/12 10:27:25;;;;;;;9.07;8.05;;;;;;;;;;4249464;28;20058;-58
2023/04/12 10:29:46;;;;;;;7.40;6.88;;;;;;;;;;4243510;28;20076;-58
2023/04/12 10:32:19;;;;;;;5.90;5.50;;;;;;;;;;4247202;28;20092;-58
2023/04/12 10:34:39;;;;;;;;;;;;;;;;;;4249549;28;20136;-58
2023/04/12 10:37:00;;;;;;;5.45;5.15;;;;;;;;;;4249057;27;19961;-58
2023/04/12 10:39:41;;;;;;;6.30;5.65;;;;;;;;;;4242401;28;20149;-58
2023/04/12 10:42:21;;;;;;;4.32;4.05;;;;;;;;;;4248835;28;20046;-59
2023/04/12 10:44:42;;;;;;;5.57;5.10;;;;;;;;;;4248170;28;20058;-58
2023/04/12 10:47:02;;;;;;;6.70;6.13;;;;;;;;;;4246358;28;20074;-58
2023/04/12 10:49:22;;;;;;;5.70;5.38;;;;;;;;;;4243941;28;20097;-58
2023/04/12 10:52:01;;;;;;;4.68;4.45;;;;;;;;;;4246388;28;20043;-58
2023/04/12 10:54:21;;;;;;;3.15;3.05;;;;;;;;;;4250801;28;20384;-58
2023/04/12 10:56:45;;;;;;;3.38;3.13;;;;;;;;;;4237188;28;20080;-59
2023/04/12 10:59:06;;;;;;;3.60;3.30;;;;;;;;;;4246462;28;20138;-58
2023/04/12 11:01:27;;;;;;;2.58;2.47;;;;;;;;;;4244745;28;20054;-58
2023/04/12 11:04:06;;;;;;;3.67;3.45;;;;;;;;;;4241824;28;20090;-59
2023/04/12 11:06:45;;;;;;;3.25;3.05;;;;;;;;;;4247102;28;20058;-58
2023/04/12 11:09:06;;;;;;;3.80;3.45;;;;;;;;;;4246965;28;20426;-58
2023/04/12 11:11:26;;;;;;;3.20;3.10;;;;;;;;;;4244010;28;20054;-58
2023/04/12 11:13:47;;;;;;;5.80;2.72;;;;;;;;;;4249151;27;20054;-59
2023/04/12 11:16:07;;;;;;;2.50;2.10;;;;;;;;;;4243910;28;20361;-59
2023/04/12 11:18:28;;;;;;;2.10;1.90;;;;;;;;;;4245514;28;20046;-59
2023/04/12 11:20:48;;;;;;;1.40;1.40;;;;;;;;;;4239673;28;20100;-59
2023/04/12 11:23:09;;;;;;;2.28;2.20;;;;;;;;;;4243593;28;20089;-58
2023/04/12 11:25:31;;;;;;;4.68;2.65;;;;;;;;;;4243536;28;20050;-58
2023/04/12 11:27:53;;;;;;;1.20;1.20;;;;;;;;;;4246881;28;20061;-59
2023/04/12 11:30:13;;;;;;;3.83;3.63;;;;;;;;;;4246107;28;20085;-59
2023/04/12 11:32:34;;;;;;;1.85;1.60;;;;;;;;;;4241499;28;20081;-59
2023/04/12 11:34:55;;;;;;;1.73;1.63;;;;;;;;;;4241962;28;20231;-59
2023/04/12 11:37:17;;;;;;;1.35;1.35;;;;;;;;;;4246069;27;20106;-59
2023/04/12 11:39:38;;;;;;;3.92;1.73;;;;;;;;;;4252463;28;20043;-59
2023/04/12 11:42:02;;;;;;;1.50;1.40;;;;;;;;;;4246665;28;20390;-57
2023/04/12 11:44:22;;;;;;;1.60;1.48;;;;;;;;;;4241751;28;20045;-57
2023/04/12 11:46:42;;;;;;;1.95;1.20;;;;;;;;;;4242341;28;20053;-57
2023/04/12 11:49:02;;;;;;;2.85;1.13;;;;;;;;;;4241555;28;20129;-57
2023/04/12 11:51:27;;;;;;;1.52;1.13;;;;;;;;;;4243493;28;20062;-57
2023/04/12 11:53:53;;;;;;;1.27;1.20;;;;;;;;;;4244194;28;20038;-57
2023/04/12 11:56:13;;;;;;;1.52;1.42;;;;;;;;;;4249481;28;20231;-58
2023/04/12 11:58:33;;;;;;;1.20;1.10;;;;;;;;;;4242700;28;20053;-59
2023/04/12 12:00:58;;;;;;;1.30;1.20;;;;;;;;;;4247681;28;20069;-58
2023/04/12 12:03:19;;;;;;;1.50;1.40;;;;;;;;;;4249864;28;20133;-58
2023/04/12 12:05:41;;;;;;;3.60;2.85;;;;;;;;;;4246240;28;20055;-58
2023/04/12 12:08:06;;;;;;;1.00;1.00;;;;;;;;;;4244399;28;20050;-58
2023/04/12 12:10:26;;;;;;;1.33;1.30;;;;;;;;;;4248161;28;20050;-58
2023/04/12 12:13:13;;;;;;;2.00;1.63;;;;;;;;;;4244131;28;20150;-58
2023/04/12 12:15:33;;;;;;;1.48;1.20;;;;;;;;;;4245619;28;20100;-58
2023/04/12 12:17:55;;;;;;;1.00;1.00;;;;;;;;;;4250529;28;20243;-58
2023/04/12 12:20:20;;;;;;;2.83;1.20;;;;;;;;;;4244995;28;20076;-58
2023/04/12 12:22:45;;;;;;;3.47;1.63;;;;;;;;;;4245825;28;20107;-58
2023/04/12 12:25:05;;;;;;;1.85;1.20;;;;;;;;;;4246190;28;20097;-58
2023/04/12 12:27:40;;;;;;;1.23;1.13;;;;;;;;;;4242050;28;20051;-58
2023/04/12 12:30:03;;;;;;;2.70;1.10;;;;;;;;;;4245299;28;20034;-58
2023/04/12 12:32:23;;;;;;;11.27;8.50;;;;;;;;;;4244595;28;20054;-58
2023/04/12 12:34:53;;;;;;;6.97;5.28;;;;;;;;;;4246621;28;20050;-58
2023/04/12 12:37:16;;;;;;;7.28;6.68;;;;;;;;;;4243726;28;20039;-59
2023/04/12 12:39:36;;;;;;;8.00;5.80;;;;;;;;;;4243122;28;20115;-58
2023/04/12 12:41:56;;;;;;;1.83;1.73;;;;;;;;;;4242163;28;20079;-58
2023/04/12 12:44:16;;;;;;;1.98;1.88;;;;;;;;;;4247533;28;20316;-58
2023/04/12 12:46:37;;;;;;;2.35;2.08;;;;;;;;;;4246738;28;20054;-58
2023/04/12 12:49:14;;;;;;;10.45;9.68;;;;;;;;;;4249615;28;20042;-58
2023/04/12 12:51:34;;;;;;;17.70;14.98;;;;;;;;;;4244470;28;20050;-58
2023/04/12 12:53:55;;;;;;;2.58;2.47;;;;;;;;;;4246576;28;20043;-58
2023/04/12 12:56:15;;;;;;;1.83;1.73;;;;;;;;;;4245942;28;20050;-58
2023/04/12 12:58:36;;;;;;;1.35;1.25;;;;;;;;;;4246062;28;20046;-58
2023/04/12 13:00:59;;;;;;;4.10;1.40;;;;;;;;;;4245351;28;20051;-58
2023/04/12 13:03:20;;;;;;;1.30;1.20;;;;;;;;;;4245427;28;20050;-58
2023/04/12 13:05:40;;;;;;;1.98;1.88;;;;;;;;;;4249307;28;20149;-59
2023/04/12 13:08:01;;;;;;;2.10;1.33;;;;;;;;;;4244303;28;20273;-59
2023/04/12 13:10:22;;;;;;;2.92;1.70;;;;;;;;;;4245407;28;20253;-58
2023/04/12 13:12:42;;;;;;;3.53;2.25;;;;;;;;;;4247733;28;20061;-59
2023/04/12 13:15:02;;;;;;;1.20;1.10;;;;;;;;;;4248705;28;20072;-58
2023/04/12 13:17:41;;;;;;;2.92;1.50;;;;;;;;;;4241511;28;20104;-58
2023/04/12 13:20:03;;;;;;;1.10;1.10;;;;;;;;;;4245795;28;20120;-58
2023/04/12 13:22:23;;;;;;;3.03;1.15;;;;;;;;;;4245582;28;20111;-58
2023/04/12 13:24:43;;;;;;;3.63;1.27;;;;;;;;;;4247354;28;20373;-58
2023/04/12 13:27:04;;;;;;;1.27;1.23;;;;;;;;;;4241149;28;20042;-58
2023/04/12 13:29:24;;;;;;;1.33;1.23;;;;;;;;;;4245756;28;20043;-58
2023/04/12 13:31:45;;;;;;;1.10;1.00;;;;;;;;;;4242910;28;20102;-58
2023/04/12 13:34:05;;;;;;;1.40;0.90;;;;;;;;;;4246368;28;20043;-58
2023/04/12 13:36:26;;;;;;;1.00;1.00;;;;;;;;;;4242773;27;20253;-58
2023/04/12 13:38:46;;;;;;;1.42;1.10;;;;;;;;;;4249236;28;20054;-59
2023/04/12 13:41:06;;;;;;;1.90;0.90;;;;;;;;;;4243292;28;20050;-58
2023/04/12 13:43:27;;;;;;;1.38;0.90;;;;;;;;;;4247139;28;20050;-58
2023/04/12 13:45:47;;;;;;;1.00;1.00;;;;;;;;;;4244758;28;20084;-58
2023/04/12 13:48:07;;;;;;;1.65;1.00;;;;;;;;;;4248469;28;20095;-58
2023/04/12 13:50:27;;;;;;;1.63;0.90;;;;;;;;;;4247679;28;20373;-58
2023/04/12 13:52:48;;;;;;;1.02;0.90;;;;;;;;;;4247692;28;20047;-58
2023/04/12 13:55:08;;;;;;;1.67;1.05;;;;;;;;;;4244275;28;20140;-58
2023/04/12 13:57:29;;;;;;;4.15;1.00;;;;;;;;;;4247710;28;20112;-58
2023/04/12 13:59:49;;;;;;;1.45;1.00;;;;;;;;;;4249196;28;20266;-58
2023/04/12 14:02:10;;;;;;;1.00;1.00;;;;;;;;;;4248996;28;20054;-58
2023/04/12 14:04:31;;;;;;;2.33;1.00;;;;;;;;;;4243414;28;20383;-58
2023/04/12 14:06:52;;;;;;;1.52;1.42;;;;;;;;;;4244373;28;20045;-58
2023/04/12 14:09:24;;;;;;;4.68;1.33;;;;;;;;;;4251996;28;20047;-58
2023/04/12 14:11:48;;;;;;;1.42;0.88;;;;;;;;;;4248247;28;20400;-58